createdAt,value
2018-02-18T02:58:04.588Z,20.26
2018-02-18T03:00:10.381Z,20.26
2018-02-18T03:02:16.249Z,20.28
2018-02-18T03:04:21.994Z,20.28
2018-02-18T03:06:28.442Z,20.29
2018-02-18T03:08:34.162Z,20.20
2018-02-18T03:10:40.292Z,20.25
2018-02-18T03:12:46.532Z,20.24
2018-02-18T03:14:52.592Z,20.23
2018-02-18T03:16:59.139Z,20.20
2018-02-18T03:19:05.150Z,20.16
2018-02-18T03:21:11.244Z,20.16
2018-02-18T03:23:18.437Z,20.18
2018-02-18T03:25:23.996Z,20.15
2018-02-18T03:27:29.621Z,20.18
2018-02-18T03:29:35.576Z,20.13
2018-02-18T03:31:41.788Z,20.22
2018-02-18T03:33:47.754Z,20.17
2018-02-18T03:35:54.378Z,20.15
2018-02-18T03:38:01.045Z,20.06
2018-02-18T03:40:07.080Z,20.09
2018-02-18T03:42:13.181Z,20.14
2018-02-18T03:44:19.178Z,20.14
2018-02-18T03:46:25.409Z,20.13
2018-02-18T03:48:31.296Z,20.14
2018-02-18T03:50:37.636Z,20.20
2018-02-18T03:52:43.297Z,20.20
2018-02-18T03:54:49.024Z,20.12
2018-02-18T03:56:54.299Z,20.08
2018-02-18T03:59:00.522Z,20.14
2018-02-18T04:01:06.417Z,20.11
2018-02-18T04:03:12.553Z,20.11
2018-02-18T04:05:18.968Z,20.14
2018-02-18T04:07:24.649Z,20.20
2018-02-18T04:09:30.505Z,20.17
2018-02-18T04:11:36.621Z,20.17
2018-02-18T04:13:42.307Z,20.14
2018-02-18T04:15:48.265Z,20.12
2018-02-18T04:17:54.858Z,20.10
2018-02-18T04:20:01.168Z,20.10
2018-02-18T04:22:06.898Z,20.17
2018-02-18T04:24:13.704Z,20.16
2018-02-18T04:26:19.324Z,20.19
2018-02-18T04:28:25.633Z,20.20
2018-02-18T04:30:31.497Z,20.11
2018-02-18T04:32:37.379Z,20.15
2018-02-18T04:34:43.189Z,20.20
2018-02-18T04:36:49.487Z,20.14
2018-02-18T04:38:55.508Z,20.18
2018-02-18T04:41:00.828Z,20.19
2018-02-18T04:43:07.198Z,20.13
2018-02-18T04:45:13.187Z,20.11
2018-02-18T04:47:19.186Z,20.08
2018-02-18T04:49:24.640Z,20.14
2018-02-18T04:51:30.876Z,20.13
2018-02-18T04:54:39.946Z,20.10
2018-02-18T04:56:46.748Z,20.16
2018-02-18T04:58:52.547Z,20.23
2018-02-18T05:00:58.384Z,20.17
2018-02-18T05:03:04.381Z,20.10
2018-02-18T05:05:10.389Z,20.03
2018-02-18T05:07:16.481Z,20.13
2018-02-18T05:09:22.233Z,20.19
2018-02-18T05:11:29.481Z,20.17
2018-02-18T05:13:35.276Z,20.10
2018-02-18T05:15:41.313Z,20.15
2018-02-18T05:17:47.392Z,20.12
2018-02-18T05:19:53.972Z,20.17
2018-02-18T05:22:00.432Z,20.19
2018-02-18T05:24:06.602Z,20.21
2018-02-18T05:26:13.509Z,20.22
2018-02-18T05:28:19.775Z,20.17
2018-02-18T05:30:25.668Z,20.16
2018-02-18T05:32:31.660Z,20.27
2018-02-18T05:34:37.639Z,20.25
2018-02-18T05:36:43.737Z,20.14
2018-02-18T05:38:49.828Z,20.20
2018-02-18T05:40:55.668Z,20.16
2018-02-18T05:43:01.449Z,20.18
2018-02-18T05:45:07.680Z,20.14
2018-02-18T05:47:13.585Z,20.16
2018-02-18T05:49:20.030Z,20.21
2018-02-18T05:51:26.996Z,20.16
2018-02-18T05:53:33.001Z,20.17
2018-02-18T05:55:39.218Z,20.11
2018-02-18T05:57:44.415Z,20.17
2018-02-18T05:59:50.179Z,20.16
2018-02-18T06:01:56.402Z,20.14
2018-02-18T06:04:02.607Z,20.11
2018-02-18T06:06:08.793Z,20.18
2018-02-18T06:08:15.797Z,20.11
2018-02-18T06:10:21.655Z,20.05
2018-02-18T06:12:28.491Z,20.02
2018-02-18T06:14:35.227Z,20.06
2018-02-18T06:16:41.471Z,20.05
2018-02-18T06:18:47.155Z,20.06
2018-02-18T06:20:53.020Z,20.02
2018-02-18T06:22:59.277Z,20.00
2018-02-18T06:25:05.571Z,19.98
2018-02-18T06:27:11.668Z,19.99
2018-02-18T06:29:17.521Z,20.05
2018-02-18T06:31:23.526Z,20.11
2018-02-18T06:33:29.536Z,20.06
2018-02-18T06:35:35.477Z,20.08
2018-02-18T06:37:40.796Z,20.10
2018-02-18T06:39:47.124Z,20.08
2018-02-18T06:41:52.747Z,20.06
2018-02-18T06:43:58.572Z,20.14
2018-02-18T06:46:04.534Z,20.11
2018-02-18T06:48:11.327Z,20.20
2018-02-18T06:50:17.233Z,20.20
2018-02-18T06:52:23.247Z,20.16
2018-02-18T06:54:29.584Z,20.15
2018-02-18T06:56:35.782Z,20.20
2018-02-18T06:58:41.686Z,20.19
2018-02-18T07:00:47.705Z,20.19
2018-02-18T07:02:53.496Z,20.09
2018-02-18T07:04:59.316Z,20.09
2018-02-18T07:07:05.717Z,20.03
2018-02-18T07:09:11.460Z,19.97
2018-02-18T07:11:17.313Z,20.00
2018-02-18T07:13:23.385Z,20.05
2018-02-18T07:15:29.568Z,20.07
2018-02-18T07:17:35.926Z,20.15
2018-02-18T07:19:41.912Z,20.22
2018-02-18T07:21:48.215Z,20.32
2018-02-18T07:23:53.505Z,20.36
2018-02-18T07:25:59.300Z,20.29
2018-02-18T07:28:04.577Z,20.36
2018-02-18T07:30:10.503Z,20.42
2018-02-18T07:32:16.857Z,20.48
2018-02-18T07:34:22.396Z,20.49
2018-02-18T07:36:28.484Z,20.46
2018-02-18T07:38:33.802Z,20.41
2018-02-18T07:40:39.722Z,20.49
2018-02-18T07:42:45.336Z,20.52
2018-02-18T07:44:52.288Z,20.57
2018-02-18T07:46:57.561Z,20.54
2018-02-18T07:49:04.723Z,20.50
2018-02-18T07:51:10.070Z,20.41
2018-02-18T07:53:15.921Z,20.47
2018-02-18T07:55:21.680Z,20.52
2018-02-18T07:57:27.626Z,20.51
2018-02-18T07:59:36.582Z,20.48
2018-02-18T08:01:42.416Z,20.56
2018-02-18T08:03:47.972Z,20.57
2018-02-18T08:05:54.162Z,20.63
2018-02-18T08:08:01.417Z,20.59
2018-02-18T08:10:07.966Z,20.60
2018-02-18T08:12:13.449Z,20.59
2018-02-18T08:14:19.184Z,20.57
2018-02-18T08:16:25.077Z,20.58
2018-02-18T08:19:33.941Z,20.63
2018-02-18T08:21:39.610Z,20.67
2018-02-18T08:23:45.640Z,20.63
2018-02-18T08:25:51.323Z,20.65
2018-02-18T08:27:57.441Z,20.72
2018-02-18T08:30:02.752Z,20.74
2018-02-18T08:32:08.433Z,20.79
2018-02-18T08:34:14.160Z,20.72
2018-02-18T08:36:19.498Z,20.77
2018-02-18T08:38:25.030Z,20.70
2018-02-18T08:40:31.263Z,20.77
2018-02-18T08:42:37.207Z,20.84
2018-02-18T08:44:42.577Z,20.93
2018-02-18T08:46:48.217Z,20.91
2018-02-18T08:48:53.492Z,20.92
2018-02-18T08:50:59.386Z,20.87
2018-02-18T08:53:05.057Z,20.90
2018-02-18T08:55:11.125Z,20.83
2018-02-18T08:57:16.484Z,20.87
2018-02-18T08:59:22.110Z,20.93
2018-02-18T09:01:27.420Z,20.87
2018-02-18T09:03:33.334Z,20.88
2018-02-18T09:05:39.006Z,20.90
2018-02-18T09:07:44.402Z,20.85
2018-02-18T09:09:49.720Z,20.93
2018-02-18T09:11:55.836Z,20.91
2018-02-18T09:14:01.845Z,20.88
2018-02-18T09:16:07.214Z,20.91
2018-02-18T09:18:13.206Z,20.97
2018-02-18T09:20:18.620Z,20.95
2018-02-18T09:22:24.216Z,21.00
2018-02-18T09:24:29.887Z,21.03
2018-02-18T09:26:35.428Z,21.09
2018-02-18T09:28:40.748Z,21.08
2018-02-18T09:30:46.895Z,21.14
2018-02-18T09:32:52.221Z,21.14
2018-02-18T09:34:57.490Z,21.13
2018-02-18T09:37:03.081Z,21.11
2018-02-18T09:39:08.374Z,21.15
2018-02-18T09:41:14.492Z,21.13
2018-02-18T09:43:20.683Z,21.16
2018-02-18T09:45:26.109Z,21.13
2018-02-18T09:47:31.462Z,21.11
2018-02-18T09:49:37.151Z,21.12
2018-02-18T09:51:42.516Z,21.21
2018-02-18T09:53:47.856Z,21.17
2018-02-18T09:55:53.474Z,21.17
2018-02-18T09:57:58.705Z,21.15
2018-02-18T10:00:04.909Z,21.10
2018-02-18T10:02:10.987Z,21.12
2018-02-18T10:04:16.706Z,21.01
2018-02-18T10:06:22.574Z,21.06
2018-02-18T10:08:29.217Z,21.07
2018-02-18T10:10:35.712Z,21.06
2018-02-18T10:12:42.059Z,21.07
2018-02-18T10:14:50.583Z,21.04
2018-02-18T10:16:56.767Z,21.05
2018-02-18T10:19:02.611Z,21.03
2018-02-18T10:21:08.936Z,21.06
2018-02-18T10:23:15.704Z,21.13
2018-02-18T10:25:21.778Z,21.12
2018-02-18T10:27:29.315Z,21.14
2018-02-18T10:29:35.562Z,21.22
2018-02-18T10:31:42.294Z,21.17
2018-02-18T10:33:49.065Z,21.15
2018-02-18T10:35:54.857Z,21.19
2018-02-18T10:38:00.801Z,21.15
2018-02-18T10:40:07.883Z,21.15
2018-02-18T10:42:13.409Z,21.17
2018-02-18T10:44:19.377Z,21.15
2018-02-18T10:46:25.057Z,21.19
2018-02-18T10:48:30.430Z,21.15
2018-02-18T10:50:35.717Z,21.20
2018-02-18T10:52:41.372Z,21.15
2018-02-18T10:54:47.209Z,21.15
2018-02-18T10:56:52.494Z,21.17
2018-02-18T10:58:58.177Z,21.16
2018-02-18T11:01:03.513Z,21.16
2018-02-18T11:03:10.232Z,21.22
2018-02-18T11:05:16.156Z,21.13
2018-02-18T11:07:25.256Z,21.07
2018-02-18T11:09:32.587Z,21.01
2018-02-18T11:11:38.280Z,21.08
2018-02-18T11:13:43.592Z,21.10
2018-02-18T11:15:50.027Z,21.12
2018-02-18T11:17:56.605Z,21.14
2018-02-18T11:20:04.433Z,21.17
2018-02-18T11:22:11.289Z,21.05
2018-02-18T11:24:17.593Z,21.08
2018-02-18T11:26:23.589Z,20.98
2018-02-18T11:28:29.393Z,21.01
2018-02-18T11:30:36.805Z,21.08
2018-02-18T11:32:42.592Z,21.08
2018-02-18T11:34:48.925Z,21.04
2018-02-18T11:36:55.153Z,21.15
2018-02-18T11:39:00.994Z,21.21
2018-02-18T11:41:07.285Z,21.18
2018-02-18T11:43:13.479Z,21.22
2018-02-18T11:45:19.471Z,21.21
2018-02-18T11:47:24.815Z,21.18
2018-02-18T11:49:30.722Z,21.26
2018-02-18T11:51:36.856Z,21.22
2018-02-18T11:53:42.180Z,21.23
2018-02-18T11:55:48.326Z,21.33
2018-02-18T11:57:53.655Z,21.30
2018-02-18T11:59:59.167Z,21.31
2018-02-18T12:02:04.849Z,21.30
2018-02-18T12:04:10.189Z,21.28
2018-02-18T12:06:15.428Z,21.29
2018-02-18T12:08:21.554Z,21.38
2018-02-18T12:10:26.852Z,21.28
2018-02-18T12:12:32.578Z,21.26
2018-02-18T12:14:39.981Z,21.20
2018-02-18T12:16:45.257Z,21.18
2018-02-18T12:18:51.208Z,21.17
2018-02-18T12:21:12.738Z,21.20
2018-02-18T12:23:18.114Z,21.10
2018-02-18T12:25:23.801Z,21.07
2018-02-18T12:27:29.399Z,21.19
2018-02-18T12:29:34.752Z,21.23
2018-02-18T12:31:40.122Z,21.17
2018-02-18T12:33:45.792Z,21.21
2018-02-18T12:35:51.031Z,21.32
2018-02-18T12:37:56.433Z,21.34
2018-02-18T12:41:04.347Z,21.33
2018-02-18T12:43:09.677Z,21.48
2018-02-18T12:45:15.344Z,21.47
2018-02-18T12:47:20.857Z,21.48
2018-02-18T12:49:27.637Z,21.48
2018-02-18T12:51:34.164Z,21.58
2018-02-18T12:53:39.499Z,21.59
2018-02-18T12:55:44.837Z,21.63
2018-02-18T12:57:50.400Z,21.66
2018-02-18T12:59:55.948Z,21.74
2018-02-18T13:02:02.908Z,21.79
2018-02-18T13:04:09.030Z,21.82
2018-02-18T13:06:21.024Z,21.78
2018-02-18T13:08:26.642Z,21.69
2018-02-18T13:10:32.543Z,21.61
2018-02-18T13:12:38.267Z,21.56
2018-02-18T13:14:43.632Z,21.61
2018-02-18T13:16:49.233Z,21.56
2018-02-18T13:18:54.570Z,21.54
2018-02-18T13:20:59.886Z,21.56
2018-02-18T13:23:09.778Z,21.59
2018-02-18T13:25:15.133Z,21.76
2018-02-18T13:27:23.141Z,21.92
2018-02-18T13:29:31.388Z,21.91
2018-02-18T13:31:38.264Z,21.85
2018-02-18T13:33:43.871Z,21.84
2018-02-18T13:35:51.754Z,21.88
2018-02-18T13:37:57.743Z,22.06
2018-02-18T13:40:03.209Z,22.37
2018-02-18T13:42:08.953Z,22.54
2018-02-18T13:44:15.200Z,22.46
2018-02-18T13:46:22.663Z,22.48
2018-02-18T13:48:37.169Z,22.59
2018-02-18T13:50:43.463Z,22.44
2018-02-18T13:52:49.898Z,22.60
2018-02-18T13:54:56.261Z,22.78
2018-02-18T13:57:02.556Z,22.89
2018-02-18T14:01:18.134Z,23.06
2018-02-18T14:03:23.609Z,23.14
2018-02-18T14:05:30.204Z,23.22
2018-02-18T14:07:36.677Z,23.28
2018-02-18T14:09:42.257Z,23.39
2018-02-18T14:11:47.784Z,23.42
2018-02-18T14:13:53.560Z,23.31
2018-02-18T14:15:59.000Z,23.29
2018-02-18T14:18:05.667Z,23.49
2018-02-18T14:20:15.270Z,23.59
2018-02-18T14:22:21.347Z,23.53
2018-02-18T14:24:26.964Z,23.62
2018-02-18T14:26:32.813Z,23.65
2018-02-18T14:28:41.920Z,23.77
2018-02-18T14:30:47.440Z,23.90
2018-02-18T14:32:54.005Z,23.97
2018-02-18T14:34:59.574Z,24.05
2018-02-18T14:37:07.160Z,24.09
2018-02-18T14:39:13.174Z,24.17
2018-02-18T14:41:29.088Z,24.23
2018-02-18T14:45:49.991Z,24.29
2018-02-18T14:52:18.162Z,24.36
2018-02-18T14:55:40.538Z,24.48
2018-02-18T14:57:46.221Z,24.52
2018-02-18T14:59:51.573Z,24.54
2018-02-18T15:01:56.900Z,24.58
2018-02-18T15:04:02.846Z,24.59
2018-02-18T15:06:08.237Z,24.61
2018-02-18T15:08:13.566Z,24.61
2018-02-18T15:10:19.607Z,24.58
2018-02-18T15:12:25.009Z,24.54
2018-02-18T15:14:30.322Z,24.53
2018-02-18T15:16:35.997Z,24.51
2018-02-18T15:18:41.333Z,24.55
2018-02-18T15:20:46.670Z,24.58
2018-02-18T15:22:52.296Z,24.56
2018-02-18T15:24:57.888Z,24.56
2018-02-18T15:27:04.580Z,24.59
2018-02-18T15:29:10.233Z,24.59
2018-02-18T15:31:15.639Z,24.60
2018-02-18T15:33:21.766Z,24.62
2018-02-18T15:35:27.549Z,24.61
2018-02-18T15:37:33.007Z,24.57
2018-02-18T15:39:38.324Z,24.61
2018-02-18T15:41:44.433Z,24.45
2018-02-18T15:43:49.862Z,24.35
2018-02-18T15:45:55.086Z,24.34
2018-02-18T15:48:00.430Z,24.34
2018-02-18T15:50:06.551Z,24.32
2018-02-18T15:52:12.000Z,24.32
2018-02-18T15:54:18.108Z,24.33
2018-02-18T15:56:24.149Z,24.30
2018-02-18T15:58:31.866Z,24.31
2018-02-18T16:00:37.633Z,24.28
2018-02-18T16:02:43.590Z,24.03
2018-02-18T16:04:53.564Z,23.23
2018-02-18T16:07:03.210Z,22.79
2018-02-18T16:09:08.993Z,22.49
2018-02-18T16:11:14.410Z,22.24
2018-02-18T16:13:20.691Z,22.00
2018-02-18T16:15:26.949Z,20.16
2018-02-18T16:17:32.361Z,19.47
2018-02-18T16:19:40.730Z,19.83
2018-02-18T16:21:50.605Z,18.65
2018-02-18T16:23:58.952Z,17.89
2018-02-18T16:26:08.170Z,17.45
2018-02-18T16:28:14.157Z,17.34
2018-02-18T16:30:19.665Z,17.10
2018-02-18T16:32:30.611Z,16.47
2018-02-18T16:34:36.165Z,17.31
2018-02-18T16:36:42.001Z,17.88
2018-02-18T16:38:47.984Z,17.87
2018-02-18T16:40:53.801Z,17.62
2018-02-18T16:42:59.144Z,17.35
2018-02-18T16:45:06.487Z,17.27
2018-02-18T16:47:11.908Z,16.85
2018-02-18T16:49:17.442Z,16.69
2018-02-18T16:51:23.228Z,16.75
2018-02-18T16:53:28.612Z,16.09
2018-02-18T16:55:34.032Z,16.41
2018-02-18T16:57:43.516Z,16.30
2018-02-18T16:59:48.885Z,15.81
2018-02-18T17:01:58.360Z,15.70
2018-02-18T17:04:04.127Z,15.77
2018-02-18T17:06:10.926Z,15.82
2018-02-18T17:08:16.998Z,15.98
2018-02-18T17:10:23.262Z,15.64
2018-02-18T17:12:29.287Z,15.47
2018-02-18T17:14:41.702Z,15.80
2018-02-18T17:16:48.974Z,15.31
2018-02-18T17:18:55.137Z,15.69
2018-02-18T17:21:02.000Z,14.98
2018-02-18T17:23:08.721Z,15.06
2018-02-18T17:25:14.556Z,15.96
2018-02-18T17:27:20.229Z,15.66
2018-02-18T17:29:31.671Z,16.44
2018-02-18T17:31:38.068Z,15.43
2018-02-18T17:33:43.567Z,15.76
2018-02-18T17:35:50.086Z,15.82
2018-02-18T17:37:57.352Z,15.47
2018-02-18T17:40:03.045Z,15.77
2018-02-18T17:42:10.472Z,15.36
2018-02-18T17:44:15.954Z,15.90
2018-02-18T17:46:21.342Z,14.93
2018-02-18T17:48:28.303Z,15.85
2018-02-18T17:50:33.782Z,16.04
2018-02-18T17:52:39.632Z,15.31
2018-02-18T17:54:45.743Z,15.53
2018-02-18T17:56:51.235Z,16.86
2018-02-18T17:58:56.663Z,16.72
2018-02-18T18:01:02.575Z,15.63
2018-02-18T18:03:08.031Z,17.49
2018-02-18T18:05:14.180Z,15.41
2018-02-18T18:07:19.853Z,15.25
2018-02-18T18:09:25.250Z,16.25
2018-02-18T18:11:30.720Z,15.81
2018-02-18T18:13:36.544Z,15.53
2018-02-18T18:15:41.913Z,16.32
2018-02-18T18:17:51.360Z,15.53
2018-02-18T18:19:57.524Z,16.26
2018-02-18T18:22:03.049Z,17.07
2018-02-18T18:24:09.673Z,16.75
2018-02-18T18:26:16.178Z,17.51
2018-02-18T18:28:21.626Z,16.07
2018-02-18T18:30:27.599Z,15.53
2018-02-18T18:32:33.774Z,16.22
2018-02-18T18:34:39.886Z,16.70
2018-02-18T18:36:46.643Z,16.42
2018-02-18T18:38:56.835Z,15.51
2018-02-18T18:41:02.280Z,14.85
2018-02-18T18:43:07.732Z,14.57
2018-02-18T18:45:14.003Z,14.81
2018-02-18T18:47:19.476Z,15.09
2018-02-18T18:49:25.159Z,14.96
2018-02-18T18:51:31.220Z,15.29
2018-02-18T18:53:37.377Z,14.56
2018-02-18T18:55:42.881Z,13.80
2018-02-18T18:57:48.666Z,14.09
2018-02-18T18:59:55.384Z,14.56
2018-02-18T19:02:01.055Z,14.52
2018-02-18T19:04:07.000Z,14.32
2018-02-18T19:06:13.400Z,13.83
2018-02-18T19:08:19.795Z,15.55
2018-02-18T19:10:26.750Z,18.25
2018-02-18T19:12:32.338Z,19.02
2018-02-18T19:14:37.835Z,19.36
2018-02-18T19:16:45.070Z,19.64
2018-02-18T19:18:50.877Z,19.76
2018-02-18T19:20:59.508Z,19.76
2018-02-18T19:23:11.766Z,19.84
2018-02-18T19:25:17.504Z,19.95
2018-02-18T19:27:29.545Z,20.10
2018-02-18T19:29:36.601Z,20.06
2018-02-18T19:31:42.525Z,20.19
2018-02-18T19:33:48.055Z,20.21
2018-02-18T19:35:53.932Z,20.27
2018-02-18T19:37:59.468Z,20.22
2018-02-18T19:40:06.046Z,20.24
2018-02-18T19:42:11.902Z,20.36
2018-02-18T19:44:17.322Z,20.39
2018-02-18T19:46:23.075Z,20.38
2018-02-18T19:48:29.053Z,20.42
2018-02-18T19:50:34.703Z,20.42
2018-02-18T19:52:40.842Z,20.48
2018-02-18T19:54:46.555Z,20.54
2018-02-18T19:56:52.106Z,20.53
2018-02-18T19:58:57.606Z,20.56
2018-02-18T20:01:03.423Z,20.63
2018-02-18T20:03:08.873Z,20.56
2018-02-18T20:05:14.955Z,20.56
2018-02-18T20:07:21.422Z,20.59
2018-02-18T20:09:27.219Z,20.55
2018-02-18T20:11:33.151Z,20.59
2018-02-18T20:13:38.924Z,20.61
2018-02-18T20:15:44.428Z,20.54
2018-02-18T20:17:50.150Z,20.53
2018-02-18T20:19:55.895Z,20.61
2018-02-18T20:22:01.756Z,20.63
2018-02-18T20:24:11.646Z,20.67
2018-02-18T20:26:17.574Z,20.68
2018-02-18T20:28:23.174Z,20.65
2018-02-18T20:30:28.772Z,20.63
2018-02-18T20:32:34.704Z,20.76
2018-02-18T20:34:40.280Z,20.81
2018-02-18T20:36:45.877Z,20.76
2018-02-18T20:38:51.901Z,20.69
2018-02-18T20:41:03.128Z,20.79
2018-02-18T20:43:09.680Z,20.78
2018-02-18T20:45:16.154Z,20.75
2018-02-18T20:47:22.400Z,20.70
2018-02-18T20:49:30.690Z,20.64
2018-02-18T20:51:38.296Z,20.53
2018-02-18T20:53:43.869Z,20.56
2018-02-18T20:55:49.886Z,20.65
2018-02-18T20:57:55.734Z,20.61
2018-02-18T21:00:01.208Z,20.57
2018-02-18T21:02:06.861Z,20.69
2018-02-18T21:04:13.144Z,20.73
2018-02-18T21:06:18.694Z,20.81
2018-02-18T21:08:24.289Z,20.78
2018-02-18T21:10:29.965Z,20.77
2018-02-18T21:12:35.304Z,20.76
2018-02-18T21:14:40.787Z,20.75
2018-02-18T21:16:46.486Z,20.65
2018-02-18T21:18:52.203Z,20.62
2018-02-18T21:20:57.560Z,20.67
2018-02-18T21:23:03.990Z,20.74
2018-02-18T21:25:10.350Z,20.75
2018-02-18T21:27:15.696Z,20.71
2018-02-18T21:29:21.941Z,20.74
2018-02-18T21:31:27.620Z,20.66
2018-02-18T21:33:32.996Z,20.59
2018-02-18T21:35:38.602Z,20.68
2018-02-18T21:37:44.044Z,20.80
2018-02-18T21:39:49.483Z,20.76
2018-02-18T21:41:55.197Z,20.75
2018-02-18T21:44:00.634Z,20.83
2018-02-18T21:46:06.083Z,20.83
2018-02-18T21:48:11.833Z,20.84
2018-02-18T21:50:17.285Z,20.76
2018-02-18T21:52:23.089Z,20.87
2018-02-18T21:54:29.619Z,20.81
2018-02-18T21:56:35.273Z,20.77
2018-02-18T21:58:41.597Z,20.85
2018-02-18T22:00:47.464Z,20.79
2018-02-18T22:02:53.084Z,20.88
2018-02-18T22:04:59.089Z,20.78
2018-02-18T22:07:05.035Z,20.77
2018-02-18T22:09:10.565Z,20.76
2018-02-18T22:11:16.301Z,20.80
2018-02-18T22:13:22.143Z,20.71
2018-02-18T22:15:27.608Z,20.84
2018-02-18T22:17:33.068Z,20.78
2018-02-18T22:19:38.781Z,20.83
2018-02-18T22:21:44.160Z,20.89
2018-02-18T22:23:49.662Z,20.86
2018-02-18T22:25:55.729Z,20.89
2018-02-18T22:28:01.439Z,20.79
2018-02-18T22:30:06.813Z,20.85
2018-02-18T22:32:12.200Z,20.90
2018-02-18T22:34:17.956Z,20.76
2018-02-18T22:36:23.614Z,20.67
2018-02-18T22:38:29.658Z,20.67
2018-02-18T22:40:35.212Z,20.64
2018-02-18T22:42:40.596Z,20.74
2018-02-18T22:44:45.999Z,20.70
2018-02-18T22:46:52.403Z,20.66
2018-02-18T22:48:57.964Z,20.65
2018-02-18T22:51:03.877Z,20.63
2018-02-18T22:53:09.330Z,20.59
2018-02-18T22:55:15.870Z,20.65
2018-02-18T22:57:22.346Z,20.63
2018-02-18T22:59:27.780Z,20.53
2018-02-18T23:01:33.728Z,20.59
2018-02-18T23:03:39.325Z,20.57
2018-02-18T23:05:48.592Z,20.64
2018-02-18T23:07:54.668Z,20.68
2018-02-18T23:10:00.101Z,20.63
2018-02-18T23:12:06.255Z,20.64
2018-02-18T23:14:12.231Z,20.59
2018-02-18T23:16:17.822Z,20.70
2018-02-18T23:18:23.790Z,20.69
2018-02-18T23:20:38.422Z,20.63
2018-02-18T23:22:44.836Z,20.76
2018-02-18T23:24:50.302Z,20.65
2018-02-18T23:26:56.771Z,20.68
2018-02-18T23:29:02.133Z,20.60
2018-02-18T23:31:08.040Z,20.58
2018-02-18T23:33:14.447Z,20.68
2018-02-18T23:35:20.328Z,20.66
2018-02-18T23:37:25.779Z,20.65
2018-02-18T23:39:31.471Z,20.63
2018-02-18T23:41:37.266Z,20.57
2018-02-18T23:43:43.231Z,20.69
2018-02-18T23:45:49.391Z,20.58
2018-02-18T23:47:54.737Z,20.54
2018-02-18T23:50:00.651Z,20.54
2018-02-18T23:52:07.121Z,20.57
2018-02-18T23:54:12.904Z,20.50
2018-02-18T23:56:18.429Z,20.58
2018-02-18T23:58:24.807Z,20.49
